sensor_id;sensor_type;location;lat;lon;timestamp;temperature;humidity
64855;DHT22;51321;50.428;8.378;2023-03-01T00:01:45;-0.50;99.90
64855;DHT22;51321;50.428;8.378;2023-03-01T00:04:26;-0.60;99.90
64855;DHT22;51321;50.428;8.378;2023-03-01T00:07:08;-0.60;99.90
64855;DHT22;51321;50.428;8.378;2023-03-01T00:09:49;-0.60;99.90
64855;DHT22;51321;50.428;8.378;2023-03-01T00:12:31;-0.60;99.90
64855;DHT22;51321;50.428;8.378;2023-03-01T00:15:12;-0.70;99.90
64855;DHT22;51321;50.428;8.378;2023-03-01T00:17:53;-0.60;99.90
64855;DHT22;51321;50.428;8.378;2023-03-01T00:20:34;-0.60;99.90
64855;DHT22;51321;50.428;8.378;2023-03-01T00:23:16;-0.60;99.90
64855;DHT22;51321;50.428;8.378;2023-03-01T00:25:57;-0.60;99.90
64855;DHT22;51321;50.428;8.378;2023-03-01T00:28:38;-0.60;99.90
64855;DHT22;51321;50.428;8.378;2023-03-01T00:31:21;-0.70;99.90
64855;DHT22;51321;50.428;8.378;2023-03-01T00:34:03;-0.60;99.90
64855;DHT22;51321;50.428;8.378;2023-03-01T00:36:44;-0.60;99.90
64855;DHT22;51321;50.428;8.378;2023-03-01T00:39:26;-0.60;99.90
64855;DHT22;51321;50.428;8.378;2023-03-01T00:42:08;-0.60;99.90
64855;DHT22;51321;50.428;8.378;2023-03-01T00:44:50;-0.60;99.90
64855;DHT22;51321;50.428;8.378;2023-03-01T00:47:31;-0.60;99.90
64855;DHT22;51321;50.428;8.378;2023-03-01T00:50:12;-0.60;99.90
64855;DHT22;51321;50.428;8.378;2023-03-01T00:52:53;-0.50;99.90
64855;DHT22;51321;50.428;8.378;2023-03-01T00:55:36;-0.50;99.90
64855;DHT22;51321;50.428;8.378;2023-03-01T00:58:19;-0.50;99.90
64855;DHT22;51321;50.428;8.378;2023-03-01T01:01:00;-0.50;99.90
64855;DHT22;51321;50.428;8.378;2023-03-01T01:03:41;-0.50;99.90
64855;DHT22;51321;50.428;8.378;2023-03-01T01:06:25;-0.40;99.90
64855;DHT22;51321;50.428;8.378;2023-03-01T01:09:06;-0.40;99.90
64855;DHT22;51321;50.428;8.378;2023-03-01T01:11:50;-0.50;99.90
64855;DHT22;51321;50.428;8.378;2023-03-01T01:14:32;-0.60;99.90
64855;DHT22;51321;50.428;8.378;2023-03-01T01:17:13;-0.60;99.90
64855;DHT22;51321;50.428;8.378;2023-03-01T01:19:54;-0.60;99.90
64855;DHT22;51321;50.428;8.378;2023-03-01T01:22:37;-0.80;99.90
64855;DHT22;51321;50.428;8.378;2023-03-01T01:25:18;-0.80;99.90
64855;DHT22;51321;50.428;8.378;2023-03-01T01:28:00;-0.70;99.90
64855;DHT22;51321;50.428;8.378;2023-03-01T01:30:42;-0.70;99.90
64855;DHT22;51321;50.428;8.378;2023-03-01T01:33:23;-0.80;99.90
64855;DHT22;51321;50.428;8.378;2023-03-01T01:36:05;-0.80;99.90
64855;DHT22;51321;50.428;8.378;2023-03-01T01:38:47;-0.90;99.90
64855;DHT22;51321;50.428;8.378;2023-03-01T01:41:29;-1.00;99.90
64855;DHT22;51321;50.428;8.378;2023-03-01T01:44:19;-1.00;99.90
64855;DHT22;51321;50.428;8.378;2023-03-01T01:47:03;-1.20;99.90
64855;DHT22;51321;50.428;8.378;2023-03-01T01:49:47;-1.20;99.90
64855;DHT22;51321;50.428;8.378;2023-03-01T01:52:33;-1.30;99.90
64855;DHT22;51321;50.428;8.378;2023-03-01T01:55:18;-1.20;99.90
64855;DHT22;51321;50.428;8.378;2023-03-01T01:58:03;-1.10;99.90
64855;DHT22;51321;50.428;8.378;2023-03-01T02:00:48;-1.20;99.90
64855;DHT22;51321;50.428;8.378;2023-03-01T02:03:30;-1.30;99.90
64855;DHT22;51321;50.428;8.378;2023-03-01T02:06:21;-1.30;99.90
64855;DHT22;51321;50.428;8.378;2023-03-01T02:09:07;-1.40;99.90
64855;DHT22;51321;50.428;8.378;2023-03-01T02:11:51;-1.40;99.90
64855;DHT22;51321;50.428;8.378;2023-03-01T02:14:31;-1.60;99.90
64855;DHT22;51321;50.428;8.378;2023-03-01T02:17:18;-1.60;99.90
64855;DHT22;51321;50.428;8.378;2023-03-01T02:20:10;-1.60;99.90
64855;DHT22;51321;50.428;8.378;2023-03-01T02:22:55;-1.50;99.90
64855;DHT22;51321;50.428;8.378;2023-03-01T02:25:44;-1.50;99.90
64855;DHT22;51321;50.428;8.378;2023-03-01T02:28:32;-1.70;99.90
64855;DHT22;51321;50.428;8.378;2023-03-01T02:31:16;-1.60;99.90
64855;DHT22;51321;50.428;8.378;2023-03-01T02:34:16;-1.70;99.90
64855;DHT22;51321;50.428;8.378;2023-03-01T02:36:59;-1.70;99.90
64855;DHT22;51321;50.428;8.378;2023-03-01T02:39:46;-1.80;99.90
64855;DHT22;51321;50.428;8.378;2023-03-01T02:42:32;-1.90;99.90
64855;DHT22;51321;50.428;8.378;2023-03-01T02:45:16;-1.80;99.90
64855;DHT22;51321;50.428;8.378;2023-03-01T02:47:57;-1.80;99.90
64855;DHT22;51321;50.428;8.378;2023-03-01T02:50:52;-1.80;99.90
64855;DHT22;51321;50.428;8.378;2023-03-01T02:53:44;-1.90;99.90
64855;DHT22;51321;50.428;8.378;2023-03-01T02:56:25;-2.10;99.90
64855;DHT22;51321;50.428;8.378;2023-03-01T02:59:06;-2.10;99.90
64855;DHT22;51321;50.428;8.378;2023-03-01T03:01:50;-2.30;99.90
64855;DHT22;51321;50.428;8.378;2023-03-01T03:04:31;-2.20;99.90
64855;DHT22;51321;50.428;8.378;2023-03-01T03:07:12;-2.10;99.90
64855;DHT22;51321;50.428;8.378;2023-03-01T03:09:54;-2.20;99.90
64855;DHT22;51321;50.428;8.378;2023-03-01T03:12:35;-2.20;99.90
64855;DHT22;51321;50.428;8.378;2023-03-01T03:15:16;-2.20;99.90
64855;DHT22;51321;50.428;8.378;2023-03-01T03:17:59;-2.20;99.90
64855;DHT22;51321;50.428;8.378;2023-03-01T03:20:40;-2.20;99.90
64855;DHT22;51321;50.428;8.378;2023-03-01T03:23:22;-2.30;99.90
64855;DHT22;51321;50.428;8.378;2023-03-01T03:26:03;-2.20;99.90
64855;DHT22;51321;50.428;8.378;2023-03-01T03:28:44;-2.00;99.90
64855;DHT22;51321;50.428;8.378;2023-03-01T03:31:26;-1.90;99.90
64855;DHT22;51321;50.428;8.378;2023-03-01T03:34:09;-2.00;99.90
64855;DHT22;51321;50.428;8.378;2023-03-01T03:36:57;-1.90;99.90
64855;DHT22;51321;50.428;8.378;2023-03-01T03:39:38;-2.00;99.90
64855;DHT22;51321;50.428;8.378;2023-03-01T03:42:19;-2.00;99.90
64855;DHT22;51321;50.428;8.378;2023-03-01T03:45:01;-2.00;99.90
64855;DHT22;51321;50.428;8.378;2023-03-01T03:47:43;-2.00;99.90
64855;DHT22;51321;50.428;8.378;2023-03-01T03:50:26;-2.20;99.90
64855;DHT22;51321;50.428;8.378;2023-03-01T03:53:07;-2.20;99.90
64855;DHT22;51321;50.428;8.378;2023-03-01T03:55:49;-2.30;99.90
64855;DHT22;51321;50.428;8.378;2023-03-01T03:58:31;-2.30;99.90
64855;DHT22;51321;50.428;8.378;2023-03-01T04:01:12;-2.20;99.90
64855;DHT22;51321;50.428;8.378;2023-03-01T04:03:52;-2.00;99.90
64855;DHT22;51321;50.428;8.378;2023-03-01T04:06:35;-1.90;99.90
64855;DHT22;51321;50.428;8.378;2023-03-01T04:09:15;-1.80;99.90
64855;DHT22;51321;50.428;8.378;2023-03-01T04:11:56;-1.90;99.90
64855;DHT22;51321;50.428;8.378;2023-03-01T04:14:37;-1.90;99.90
64855;DHT22;51321;50.428;8.378;2023-03-01T04:17:17;-1.90;99.90
64855;DHT22;51321;50.428;8.378;2023-03-01T04:19:58;-2.00;99.90
64855;DHT22;51321;50.428;8.378;2023-03-01T04:22:40;-2.00;99.90
64855;DHT22;51321;50.428;8.378;2023-03-01T04:25:21;-2.00;99.90
64855;DHT22;51321;50.428;8.378;2023-03-01T04:28:08;-2.00;99.90
64855;DHT22;51321;50.428;8.378;2023-03-01T04:30:50;-1.80;99.90
64855;DHT22;51321;50.428;8.378;2023-03-01T04:33:31;-1.80;99.90
64855;DHT22;51321;50.428;8.378;2023-03-01T04:36:13;-1.90;99.90
64855;DHT22;51321;50.428;8.378;2023-03-01T04:38:56;-2.00;99.90
64855;DHT22;51321;50.428;8.378;2023-03-01T04:41:38;-2.00;99.90
64855;DHT22;51321;50.428;8.378;2023-03-01T04:44:19;-2.00;99.90
64855;DHT22;51321;50.428;8.378;2023-03-01T04:46:59;-2.00;99.90
64855;DHT22;51321;50.428;8.378;2023-03-01T04:49:41;-2.00;99.90
64855;DHT22;51321;50.428;8.378;2023-03-01T04:52:21;-1.90;99.90
64855;DHT22;51321;50.428;8.378;2023-03-01T04:55:06;-1.90;99.90
64855;DHT22;51321;50.428;8.378;2023-03-01T04:57:47;-1.90;99.90
64855;DHT22;51321;50.428;8.378;2023-03-01T05:00:28;-2.10;99.90
64855;DHT22;51321;50.428;8.378;2023-03-01T05:03:12;-2.10;99.90
64855;DHT22;51321;50.428;8.378;2023-03-01T05:05:58;-2.00;99.90
64855;DHT22;51321;50.428;8.378;2023-03-01T05:08:41;-2.10;99.90
64855;DHT22;51321;50.428;8.378;2023-03-01T05:11:24;-2.20;99.90
64855;DHT22;51321;50.428;8.378;2023-03-01T05:14:06;-2.20;99.90
64855;DHT22;51321;50.428;8.378;2023-03-01T05:16:47;-2.10;99.90
64855;DHT22;51321;50.428;8.378;2023-03-01T05:19:28;-2.20;99.90
64855;DHT22;51321;50.428;8.378;2023-03-01T05:22:10;-2.30;99.90
64855;DHT22;51321;50.428;8.378;2023-03-01T05:24:50;-2.30;99.90
64855;DHT22;51321;50.428;8.378;2023-03-01T05:27:35;-2.50;99.90
64855;DHT22;51321;50.428;8.378;2023-03-01T05:30:18;-2.40;99.90
64855;DHT22;51321;50.428;8.378;2023-03-01T05:32:59;-2.30;99.90
64855;DHT22;51321;50.428;8.378;2023-03-01T05:35:41;-2.40;99.90
64855;DHT22;51321;50.428;8.378;2023-03-01T05:38:22;-2.50;99.90
64855;DHT22;51321;50.428;8.378;2023-03-01T05:41:03;-2.60;99.90
64855;DHT22;51321;50.428;8.378;2023-03-01T05:43:45;-2.70;99.90
64855;DHT22;51321;50.428;8.378;2023-03-01T05:46:26;-2.60;99.90
64855;DHT22;51321;50.428;8.378;2023-03-01T05:49:08;-2.60;99.90
64855;DHT22;51321;50.428;8.378;2023-03-01T05:51:51;-2.60;99.90
64855;DHT22;51321;50.428;8.378;2023-03-01T05:54:32;-2.70;99.90
64855;DHT22;51321;50.428;8.378;2023-03-01T05:57:13;-2.70;99.90
64855;DHT22;51321;50.428;8.378;2023-03-01T05:59:55;-2.70;99.90
64855;DHT22;51321;50.428;8.378;2023-03-01T06:02:36;-2.70;99.90
64855;DHT22;51321;50.428;8.378;2023-03-01T06:05:17;-2.60;99.90
64855;DHT22;51321;50.428;8.378;2023-03-01T06:07:59;-2.60;99.90
64855;DHT22;51321;50.428;8.378;2023-03-01T06:10:40;-2.60;99.90
64855;DHT22;51321;50.428;8.378;2023-03-01T06:13:21;-2.50;99.90
64855;DHT22;51321;50.428;8.378;2023-03-01T06:16:08;-2.50;99.90
64855;DHT22;51321;50.428;8.378;2023-03-01T06:18:49;-2.50;99.90
64855;DHT22;51321;50.428;8.378;2023-03-01T06:21:32;-2.30;99.90
64855;DHT22;51321;50.428;8.378;2023-03-01T06:24:12;-2.20;99.90
64855;DHT22;51321;50.428;8.378;2023-03-01T06:26:53;-2.00;99.90
64855;DHT22;51321;50.428;8.378;2023-03-01T06:29:34;-1.90;99.90
64855;DHT22;51321;50.428;8.378;2023-03-01T06:32:16;-1.80;99.90
64855;DHT22;51321;50.428;8.378;2023-03-01T06:34:57;-1.80;99.90
64855;DHT22;51321;50.428;8.378;2023-03-01T06:37:38;-1.80;99.90
64855;DHT22;51321;50.428;8.378;2023-03-01T06:40:19;-1.70;99.90
64855;DHT22;51321;50.428;8.378;2023-03-01T06:43:01;-1.60;99.90
64855;DHT22;51321;50.428;8.378;2023-03-01T06:45:42;-1.60;99.90
64855;DHT22;51321;50.428;8.378;2023-03-01T06:48:29;-1.50;99.90
64855;DHT22;51321;50.428;8.378;2023-03-01T06:51:11;-1.50;99.90
64855;DHT22;51321;50.428;8.378;2023-03-01T06:53:52;-1.40;99.90
64855;DHT22;51321;50.428;8.378;2023-03-01T06:56:33;-1.40;99.90
64855;DHT22;51321;50.428;8.378;2023-03-01T06:59:14;-1.30;99.90
64855;DHT22;51321;50.428;8.378;2023-03-01T07:01:55;-1.30;99.90
64855;DHT22;51321;50.428;8.378;2023-03-01T07:04:37;-1.20;99.90
64855;DHT22;51321;50.428;8.378;2023-03-01T07:07:18;-1.10;99.90
64855;DHT22;51321;50.428;8.378;2023-03-01T07:10:00;-0.90;99.90
64855;DHT22;51321;50.428;8.378;2023-03-01T07:12:41;-0.80;99.90
64855;DHT22;51321;50.428;8.378;2023-03-01T07:15:22;-0.60;99.90
64855;DHT22;51321;50.428;8.378;2023-03-01T07:18:03;-0.50;99.90
64855;DHT22;51321;50.428;8.378;2023-03-01T07:20:45;-0.30;99.90
64855;DHT22;51321;50.428;8.378;2023-03-01T07:23:26;-0.10;99.90
64855;DHT22;51321;50.428;8.378;2023-03-01T07:26:08;0.00;99.90
64855;DHT22;51321;50.428;8.378;2023-03-01T07:28:49;0.10;99.90
64855;DHT22;51321;50.428;8.378;2023-03-01T07:31:30;0.20;99.90
64855;DHT22;51321;50.428;8.378;2023-03-01T07:34:11;0.30;99.90
64855;DHT22;51321;50.428;8.378;2023-03-01T07:36:53;0.40;99.90
64855;DHT22;51321;50.428;8.378;2023-03-01T07:39:35;0.30;99.90
64855;DHT22;51321;50.428;8.378;2023-03-01T07:42:16;0.20;99.90
64855;DHT22;51321;50.428;8.378;2023-03-01T07:44:56;0.30;99.90
64855;DHT22;51321;50.428;8.378;2023-03-01T07:47:37;0.30;99.90
64855;DHT22;51321;50.428;8.378;2023-03-01T07:50:19;0.20;99.90
64855;DHT22;51321;50.428;8.378;2023-03-01T07:53:02;0.20;99.90
64855;DHT22;51321;50.428;8.378;2023-03-01T07:55:46;0.30;99.90
64855;DHT22;51321;50.428;8.378;2023-03-01T07:58:27;0.30;99.90
64855;DHT22;51321;50.428;8.378;2023-03-01T08:01:09;0.30;99.90
64855;DHT22;51321;50.428;8.378;2023-03-01T08:03:51;0.40;99.90
64855;DHT22;51321;50.428;8.378;2023-03-01T08:06:33;0.50;99.90
64855;DHT22;51321;50.428;8.378;2023-03-01T08:09:16;0.60;99.90
64855;DHT22;51321;50.428;8.378;2023-03-01T08:11:56;0.70;99.90
64855;DHT22;51321;50.428;8.378;2023-03-01T08:14:38;0.70;99.90
64855;DHT22;51321;50.428;8.378;2023-03-01T08:17:19;0.60;99.90
64855;DHT22;51321;50.428;8.378;2023-03-01T08:20:00;0.70;99.90
64855;DHT22;51321;50.428;8.378;2023-03-01T08:22:42;0.80;99.90
64855;DHT22;51321;50.428;8.378;2023-03-01T08:25:26;1.00;99.90
64855;DHT22;51321;50.428;8.378;2023-03-01T08:28:07;1.00;99.90
64855;DHT22;51321;50.428;8.378;2023-03-01T08:30:47;1.30;99.90
64855;DHT22;51321;50.428;8.378;2023-03-01T08:33:28;1.30;99.90
64855;DHT22;51321;50.428;8.378;2023-03-01T08:36:10;1.30;99.90
64855;DHT22;51321;50.428;8.378;2023-03-01T08:38:51;1.40;99.90
64855;DHT22;51321;50.428;8.378;2023-03-01T08:41:33;1.40;99.90
64855;DHT22;51321;50.428;8.378;2023-03-01T08:44:15;1.40;99.90
64855;DHT22;51321;50.428;8.378;2023-03-01T08:46:56;1.50;99.90
64855;DHT22;51321;50.428;8.378;2023-03-01T08:49:37;1.70;99.90
64855;DHT22;51321;50.428;8.378;2023-03-01T08:52:17;1.80;99.90
64855;DHT22;51321;50.428;8.378;2023-03-01T08:54:58;1.70;99.90
64855;DHT22;51321;50.428;8.378;2023-03-01T08:57:42;1.60;99.90
64855;DHT22;51321;50.428;8.378;2023-03-01T09:00:23;1.70;99.90
64855;DHT22;51321;50.428;8.378;2023-03-01T09:03:04;1.80;99.90
64855;DHT22;51321;50.428;8.378;2023-03-01T09:05:44;2.00;99.90
64855;DHT22;51321;50.428;8.378;2023-03-01T09:08:25;2.10;99.90
64855;DHT22;51321;50.428;8.378;2023-03-01T09:11:08;2.10;99.90
64855;DHT22;51321;50.428;8.378;2023-03-01T09:13:50;2.20;99.90
64855;DHT22;51321;50.428;8.378;2023-03-01T09:16:31;2.30;99.90
64855;DHT22;51321;50.428;8.378;2023-03-01T09:19:15;2.40;99.90
64855;DHT22;51321;50.428;8.378;2023-03-01T09:21:56;2.70;99.90
64855;DHT22;51321;50.428;8.378;2023-03-01T09:24:38;2.70;99.90
64855;DHT22;51321;50.428;8.378;2023-03-01T09:27:19;2.90;99.90
64855;DHT22;51321;50.428;8.378;2023-03-01T09:30:02;3.00;99.90
64855;DHT22;51321;50.428;8.378;2023-03-01T09:32:43;3.00;99.90
64855;DHT22;51321;50.428;8.378;2023-03-01T09:35:24;3.00;99.90
64855;DHT22;51321;50.428;8.378;2023-03-01T09:38:08;3.10;99.90
64855;DHT22;51321;50.428;8.378;2023-03-01T09:40:49;3.10;99.90
64855;DHT22;51321;50.428;8.378;2023-03-01T09:43:34;3.00;99.90
64855;DHT22;51321;50.428;8.378;2023-03-01T09:46:23;3.10;99.90
64855;DHT22;51321;50.428;8.378;2023-03-01T09:49:07;3.30;99.90
64855;DHT22;51321;50.428;8.378;2023-03-01T09:51:57;3.30;99.90
64855;DHT22;51321;50.428;8.378;2023-03-01T09:54:37;3.40;99.90
64855;DHT22;51321;50.428;8.378;2023-03-01T09:57:24;3.30;99.90
64855;DHT22;51321;50.428;8.378;2023-03-01T10:00:18;3.30;99.90
64855;DHT22;51321;50.428;8.378;2023-03-01T10:03:10;3.40;99.90
64855;DHT22;51321;50.428;8.378;2023-03-01T10:06:01;3.40;99.90
64855;DHT22;51321;50.428;8.378;2023-03-01T10:08:54;3.60;99.70
64855;DHT22;51321;50.428;8.378;2023-03-01T10:11:38;3.60;99.90
64855;DHT22;51321;50.428;8.378;2023-03-01T10:14:27;3.70;99.90
64855;DHT22;51321;50.428;8.378;2023-03-01T10:17:16;3.90;99.20
64855;DHT22;51321;50.428;8.378;2023-03-01T10:20:14;4.10;98.90
64855;DHT22;51321;50.428;8.378;2023-03-01T10:22:56;4.00;98.50
64855;DHT22;51321;50.428;8.378;2023-03-01T10:25:45;4.10;98.30
64855;DHT22;51321;50.428;8.378;2023-03-01T10:28:31;4.50;98.70
64855;DHT22;51321;50.428;8.378;2023-03-01T10:31:20;4.80;98.00
64855;DHT22;51321;50.428;8.378;2023-03-01T10:34:02;5.20;97.50
64855;DHT22;51321;50.428;8.378;2023-03-01T10:36:47;5.20;96.50
64855;DHT22;51321;50.428;8.378;2023-03-01T10:39:29;5.10;95.70
64855;DHT22;51321;50.428;8.378;2023-03-01T10:42:22;4.90;95.50
64855;DHT22;51321;50.428;8.378;2023-03-01T10:45:16;4.70;95.40
64855;DHT22;51321;50.428;8.378;2023-03-01T10:48:05;4.50;96.10
64855;DHT22;51321;50.428;8.378;2023-03-01T10:50:48;4.70;96.50
64855;DHT22;51321;50.428;8.378;2023-03-01T10:53:33;4.90;96.20
64855;DHT22;51321;50.428;8.378;2023-03-01T10:56:15;4.80;95.50
64855;DHT22;51321;50.428;8.378;2023-03-01T10:58:59;4.90;95.90
64855;DHT22;51321;50.428;8.378;2023-03-01T11:01:40;4.70;95.10
64855;DHT22;51321;50.428;8.378;2023-03-01T11:04:21;4.80;95.70
64855;DHT22;51321;50.428;8.378;2023-03-01T11:07:02;4.70;95.20
64855;DHT22;51321;50.428;8.378;2023-03-01T11:09:45;4.90;95.60
64855;DHT22;51321;50.428;8.378;2023-03-01T11:12:27;5.00;94.60
64855;DHT22;51321;50.428;8.378;2023-03-01T11:15:20;5.00;94.60
64855;DHT22;51321;50.428;8.378;2023-03-01T11:18:02;5.00;94.70
64855;DHT22;51321;50.428;8.378;2023-03-01T11:20:44;5.20;94.40
64855;DHT22;51321;50.428;8.378;2023-03-01T11:23:28;5.40;94.00
64855;DHT22;51321;50.428;8.378;2023-03-01T11:26:13;5.20;94.40
64855;DHT22;51321;50.428;8.378;2023-03-01T11:29:00;5.40;94.50
64855;DHT22;51321;50.428;8.378;2023-03-01T11:31:43;5.40;94.20
64855;DHT22;51321;50.428;8.378;2023-03-01T11:34:39;5.50;94.70
64855;DHT22;51321;50.428;8.378;2023-03-01T11:37:32;5.60;93.40
64855;DHT22;51321;50.428;8.378;2023-03-01T11:40:17;5.80;93.50
64855;DHT22;51321;50.428;8.378;2023-03-01T11:43:15;5.80;93.10
64855;DHT22;51321;50.428;8.378;2023-03-01T11:46:23;5.90;93.70
64855;DHT22;51321;50.428;8.378;2023-03-01T11:49:21;6.10;93.30
64855;DHT22;51321;50.428;8.378;2023-03-01T11:52:12;6.10;92.20
64855;DHT22;51321;50.428;8.378;2023-03-01T11:55:20;6.00;92.80
64855;DHT22;51321;50.428;8.378;2023-03-01T11:58:20;6.30;92.30
64855;DHT22;51321;50.428;8.378;2023-03-01T12:01:15;6.30;91.40
64855;DHT22;51321;50.428;8.378;2023-03-01T12:07:15;6.10;92.30
64855;DHT22;51321;50.428;8.378;2023-03-01T12:10:14;6.00;92.90
64855;DHT22;51321;50.428;8.378;2023-03-01T12:16:21;6.00;93.00
64855;DHT22;51321;50.428;8.378;2023-03-01T12:19:25;6.10;92.10
64855;DHT22;51321;50.428;8.378;2023-03-01T12:22:21;5.80;92.20
64855;DHT22;51321;50.428;8.378;2023-03-01T12:25:25;5.80;92.10
64855;DHT22;51321;50.428;8.378;2023-03-01T12:28:46;6.10;92.90
64855;DHT22;51321;50.428;8.378;2023-03-01T12:31:44;6.20;91.80
64855;DHT22;51321;50.428;8.378;2023-03-01T12:37:42;5.90;91.80
64855;DHT22;51321;50.428;8.378;2023-03-01T12:40:36;6.10;91.60
64855;DHT22;51321;50.428;8.378;2023-03-01T12:43:31;6.20;91.30
64855;DHT22;51321;50.428;8.378;2023-03-01T12:46:25;6.20;90.90
64855;DHT22;51321;50.428;8.378;2023-03-01T12:49:13;6.00;91.10
64855;DHT22;51321;50.428;8.378;2023-03-01T12:51:58;6.10;91.50
64855;DHT22;51321;50.428;8.378;2023-03-01T12:54:41;6.20;90.90
64855;DHT22;51321;50.428;8.378;2023-03-01T12:57:27;6.00;91.30
64855;DHT22;51321;50.428;8.378;2023-03-01T13:00:24;6.20;91.00
64855;DHT22;51321;50.428;8.378;2023-03-01T13:03:18;6.30;90.90
64855;DHT22;51321;50.428;8.378;2023-03-01T13:06:08;6.20;91.10
64855;DHT22;51321;50.428;8.378;2023-03-01T13:08:58;6.50;90.80
64855;DHT22;51321;50.428;8.378;2023-03-01T13:11:41;6.40;90.80
64855;DHT22;51321;50.428;8.378;2023-03-01T13:14:36;6.30;90.30
64855;DHT22;51321;50.428;8.378;2023-03-01T13:17:40;6.30;90.90
64855;DHT22;51321;50.428;8.378;2023-03-01T13:20:26;6.30;91.00
64855;DHT22;51321;50.428;8.378;2023-03-01T13:23:12;6.30;90.80
64855;DHT22;51321;50.428;8.378;2023-03-01T13:26:04;6.10;90.40
64855;DHT22;51321;50.428;8.378;2023-03-01T13:28:55;6.20;90.70
64855;DHT22;51321;50.428;8.378;2023-03-01T13:31:58;6.20;90.30
64855;DHT22;51321;50.428;8.378;2023-03-01T13:34:56;6.40;90.10
64855;DHT22;51321;50.428;8.378;2023-03-01T13:37:38;6.30;90.30
64855;DHT22;51321;50.428;8.378;2023-03-01T13:43:38;6.00;89.20
64855;DHT22;51321;50.428;8.378;2023-03-01T13:46:22;6.00;89.30
64855;DHT22;51321;50.428;8.378;2023-03-01T13:49:04;6.00;90.00
64855;DHT22;51321;50.428;8.378;2023-03-01T13:51:46;6.10;90.10
64855;DHT22;51321;50.428;8.378;2023-03-01T13:54:30;6.20;90.30
64855;DHT22;51321;50.428;8.378;2023-03-01T13:57:21;6.30;89.90
64855;DHT22;51321;50.428;8.378;2023-03-01T14:00:07;6.20;89.60
64855;DHT22;51321;50.428;8.378;2023-03-01T14:03:00;6.10;89.10
64855;DHT22;51321;50.428;8.378;2023-03-01T14:05:43;6.00;89.30
64855;DHT22;51321;50.428;8.378;2023-03-01T14:08:26;6.10;89.10
64855;DHT22;51321;50.428;8.378;2023-03-01T14:11:35;6.00;89.20
64855;DHT22;51321;50.428;8.378;2023-03-01T14:14:46;6.00;89.80
64855;DHT22;51321;50.428;8.378;2023-03-01T14:17:47;6.10;89.10
64855;DHT22;51321;50.428;8.378;2023-03-01T14:20:32;6.00;89.00
64855;DHT22;51321;50.428;8.378;2023-03-01T14:23:18;6.00;89.40
64855;DHT22;51321;50.428;8.378;2023-03-01T14:26:00;6.00;89.20
64855;DHT22;51321;50.428;8.378;2023-03-01T14:28:42;5.90;89.50
64855;DHT22;51321;50.428;8.378;2023-03-01T14:31:36;6.00;89.60
64855;DHT22;51321;50.428;8.378;2023-03-01T14:34:21;6.00;88.00
64855;DHT22;51321;50.428;8.378;2023-03-01T14:37:10;6.00;87.40
64855;DHT22;51321;50.428;8.378;2023-03-01T14:39:52;6.00;87.00
64855;DHT22;51321;50.428;8.378;2023-03-01T14:42:35;6.00;87.20
64855;DHT22;51321;50.428;8.378;2023-03-01T14:45:16;6.00;86.70
64855;DHT22;51321;50.428;8.378;2023-03-01T14:48:00;6.00;86.70
64855;DHT22;51321;50.428;8.378;2023-03-01T14:50:44;6.10;87.30
64855;DHT22;51321;50.428;8.378;2023-03-01T14:53:26;6.10;88.40
64855;DHT22;51321;50.428;8.378;2023-03-01T14:56:14;6.10;85.80
64855;DHT22;51321;50.428;8.378;2023-03-01T14:58:58;6.10;85.20
64855;DHT22;51321;50.428;8.378;2023-03-01T15:01:40;6.10;84.20
64855;DHT22;51321;50.428;8.378;2023-03-01T15:04:22;6.00;84.30
64855;DHT22;51321;50.428;8.378;2023-03-01T15:07:04;6.00;84.80
64855;DHT22;51321;50.428;8.378;2023-03-01T15:09:46;6.00;83.90
64855;DHT22;51321;50.428;8.378;2023-03-01T15:12:39;5.90;83.10
64855;DHT22;51321;50.428;8.378;2023-03-01T15:15:26;5.90;83.60
64855;DHT22;51321;50.428;8.378;2023-03-01T15:18:17;6.00;84.50
64855;DHT22;51321;50.428;8.378;2023-03-01T15:21:07;6.00;84.80
64855;DHT22;51321;50.428;8.378;2023-03-01T15:23:52;5.90;85.40
64855;DHT22;51321;50.428;8.378;2023-03-01T15:26:39;6.00;85.20
64855;DHT22;51321;50.428;8.378;2023-03-01T15:29:23;5.90;84.40
64855;DHT22;51321;50.428;8.378;2023-03-01T15:32:25;5.90;84.80
64855;DHT22;51321;50.428;8.378;2023-03-01T15:35:35;5.90;83.90
64855;DHT22;51321;50.428;8.378;2023-03-01T15:38:29;5.90;83.70
64855;DHT22;51321;50.428;8.378;2023-03-01T15:41:24;5.90;83.60
64855;DHT22;51321;50.428;8.378;2023-03-01T15:44:15;5.80;82.50
64855;DHT22;51321;50.428;8.378;2023-03-01T15:46:56;5.90;82.30
64855;DHT22;51321;50.428;8.378;2023-03-01T15:49:41;5.80;82.70
64855;DHT22;51321;50.428;8.378;2023-03-01T15:52:24;5.90;82.00
64855;DHT22;51321;50.428;8.378;2023-03-01T15:55:16;5.90;80.80
64855;DHT22;51321;50.428;8.378;2023-03-01T15:58:00;5.90;79.40
64855;DHT22;51321;50.428;8.378;2023-03-01T16:00:43;5.90;79.00
64855;DHT22;51321;50.428;8.378;2023-03-01T16:03:24;5.80;79.80
64855;DHT22;51321;50.428;8.378;2023-03-01T16:06:07;5.80;79.20
64855;DHT22;51321;50.428;8.378;2023-03-01T16:08:48;5.90;78.50
64855;DHT22;51321;50.428;8.378;2023-03-01T16:11:29;5.80;78.40
64855;DHT22;51321;50.428;8.378;2023-03-01T16:14:13;5.80;79.50
64855;DHT22;51321;50.428;8.378;2023-03-01T16:16:54;5.70;79.80
64855;DHT22;51321;50.428;8.378;2023-03-01T16:19:35;5.70;79.70
64855;DHT22;51321;50.428;8.378;2023-03-01T16:22:16;5.70;80.30
64855;DHT22;51321;50.428;8.378;2023-03-01T16:25:00;5.70;80.20
64855;DHT22;51321;50.428;8.378;2023-03-01T16:27:42;5.70;80.10
64855;DHT22;51321;50.428;8.378;2023-03-01T16:30:24;5.60;80.70
64855;DHT22;51321;50.428;8.378;2023-03-01T16:33:05;5.50;80.80
64855;DHT22;51321;50.428;8.378;2023-03-01T16:35:47;5.50;81.80
64855;DHT22;51321;50.428;8.378;2023-03-01T16:38:31;5.40;81.60
64855;DHT22;51321;50.428;8.378;2023-03-01T16:41:14;5.40;81.50
64855;DHT22;51321;50.428;8.378;2023-03-01T16:43:55;5.40;81.90
64855;DHT22;51321;50.428;8.378;2023-03-01T16:46:36;5.50;80.80
64855;DHT22;51321;50.428;8.378;2023-03-01T16:49:18;5.50;82.10
64855;DHT22;51321;50.428;8.378;2023-03-01T16:51:59;5.30;80.90
64855;DHT22;51321;50.428;8.378;2023-03-01T16:54:40;5.40;81.10
64855;DHT22;51321;50.428;8.378;2023-03-01T16:57:21;5.20;81.10
64855;DHT22;51321;50.428;8.378;2023-03-01T17:00:02;5.20;80.90
64855;DHT22;51321;50.428;8.378;2023-03-01T17:02:49;5.20;81.30
64855;DHT22;51321;50.428;8.378;2023-03-01T17:05:31;5.10;81.20
64855;DHT22;51321;50.428;8.378;2023-03-01T17:08:14;5.00;81.50
64855;DHT22;51321;50.428;8.378;2023-03-01T17:10:55;5.00;81.70
64855;DHT22;51321;50.428;8.378;2023-03-01T17:13:36;4.90;81.70
64855;DHT22;51321;50.428;8.378;2023-03-01T17:16:19;4.90;81.10
64855;DHT22;51321;50.428;8.378;2023-03-01T17:19:01;4.90;82.00
64855;DHT22;51321;50.428;8.378;2023-03-01T17:21:42;4.90;81.20
64855;DHT22;51321;50.428;8.378;2023-03-01T17:24:23;4.80;81.50
64855;DHT22;51321;50.428;8.378;2023-03-01T17:27:06;4.70;83.00
64855;DHT22;51321;50.428;8.378;2023-03-01T17:29:46;4.60;82.80
64855;DHT22;51321;50.428;8.378;2023-03-01T17:32:27;4.60;82.20
64855;DHT22;51321;50.428;8.378;2023-03-01T17:35:10;4.60;83.40
64855;DHT22;51321;50.428;8.378;2023-03-01T17:37:51;4.50;82.30
64855;DHT22;51321;50.428;8.378;2023-03-01T17:40:32;4.60;82.70
64855;DHT22;51321;50.428;8.378;2023-03-01T17:43:15;4.50;83.60